Tümü
Henstridge Airfield Airport (Henstridge, England) EGHS Hava Durumu
There is no TAF data available at EGHS. Showing TAF data for EGDY (12 mi B).
YEO Terminal Alanı Tahmini (EGHS için veri yok)
| Date | Time (BST) | Flight Rules | Wind Dir. | Speed | Type | Height AGL (ft) | Visibility | Remarks | ||||||
|---|---|---|---|---|---|---|---|---|---|---|---|---|---|---|
There is no METAR data available at EGHS. Showing METAR data for EGDY (12 mi B).
Yakın zamandaki YEO METAR geçmişi (EGHS verisi yok)
| Date | Time (BST) | Flight Rules | Wind Dir. | Speed | Type | Height AGL (ft) | Visibility | Temp (°C) | Temp (°F) | Dew Point (°C) | Dew Point (°F) | Rel. Humid. | Pressure | Density Altitude | Remarks |
|---|---|---|---|---|---|---|---|---|---|---|---|---|---|---|---|
| 06-Eyl | 21:50 | VFR | 180° | 5 kt | 10000 meters | 18° | 64° | 15° | 59° | 83% | 1017 mb | 323 ft | |||
| 06-Eyl | 21:20 | VFR | 190° | 3 kt | 10000 meters | 19° | 66° | 15° | 59° | 78% | 1017 mb | 443 ft | |||
| 06-Eyl | 20:50 | VFR | 170° | 9 kt | 10000 meters | 20° | 68° | 15° | 59° | 73% | 1016 mb | 593 ft | |||
| 06-Eyl | 20:20 | VFR | 170° | 6 kt | 10000 meters | 19° | 66° | 14° | 57° | 73% | 1016 mb | 473 ft | |||
| 06-Eyl | 19:50 | VFR | 170° | 7 kt | Few |
11.000 |
10000 meters | 20° | 68° | 14° | 57° | 68% | 1016 mb | 593 ft | |
| 06-Eyl | 19:20 | VFR | 160° | 11 kt | Broken |
11.000 |
10000 meters | 21° | 69° | 14° | 57° | 64% | 1016 mb | 713 ft | |
| 06-Eyl | 18:50 | VFR | 150° | 12 kt | 10000 meters | 22° | 71° | 14° | 57° | 60% | 1016 mb | 833 ft | |||
| 06-Eyl | 18:20 | VFR | 150° | 12 kt | 10000 meters | 23° | 73° | 14° | 57° | 57% | 1016 mb | 953 ft | |||
| 06-Eyl | 17:50 | VFR | 160° | 11 kt | 10000 meters | 24° | 75° | 14° | 57° | 54% | 1016 mb | 1.073 ft | |||
| 06-Eyl | 17:20 | VFR | 170° | 9 kt | 10000 meters | 25° | 77° | 14° | 57° | 50% | 1016 mb | 1.193 ft | |||
| 06-Eyl | 16:50 | VFR | 150° | 10 kt | 10000 meters | 26° | 78° | 14° | 57° | 48% | 1017 mb | 1.283 ft | |||
| 06-Eyl | 16:20 | VFR | 170° | 11 kt | 10000 meters | 26° | 78° | 13° | 55° | 45% | 1017 mb | 1.283 ft | |||
| 06-Eyl | 15:50 | VFR | 160° | 14 kt | 10000 meters | 26° | 78° | 12° | 53° | 42% | 1017 mb | 1.283 ft | |||
| 06-Eyl | 15:20 | VFR | 150° | 14 kt | 10000 meters | 27° | 80° | 11° | 51° | 37% | 1017 mb | 1.403 ft | |||
| 06-Eyl | 14:50 | VFR | 190° | 11 kt | 10000 meters | 27° | 80° | 10° | 50° | 34% | 1018 mb | 1.373 ft | |||
| 06-Eyl | 14:20 | VFR | 180° | 14 kt | 10000 meters | 27° | 80° | 10° | 50° | 34% | 1018 mb | 1.373 ft | |||
| 06-Eyl | 13:50 | VFR | 180° | 12 kt | 10000 meters | 26° | 78° | 10° | 50° | 37% | 1019 mb | 1.224 ft | |||
| 06-Eyl | 13:20 | VFR | 170° | 10 kt | 10000 meters | 25° | 77° | 12° | 53° | 44% | 1019 mb | 1.104 ft | |||
| 06-Eyl | 12:50 | VFR | 180° | 13 kt | Few |
10.000 |
10000 meters | 24° | 75° | 11° | 51° | 44% | 1019 mb | 984 ft | |
| 06-Eyl | 12:20 | VFR | 170° | 12 kt | 10000 meters | 25° | 77° | 11° | 51° | 41% | 1020 mb | 1.074 ft | |||
| 06-Eyl | 11:50 | VFR | 160° | 11 kt | 10000 meters | 24° | 75° | 13° | 55° | 50% | 1020 mb | 954 ft | |||
| 06-Eyl | 11:20 | VFR | 160° | 8 kt | 10000 meters | 23° | 73° | 14° | 57° | 57% | 1020 mb | 834 ft | |||
| 06-Eyl | 10:50 | VFR | 170° | 10 kt | 10000 meters | 22° | 71° | 14° | 57° | 60% | 1020 mb | 714 ft | |||
| 06-Eyl | 09:50 | VFR | 160° | 11 kt | 10000 meters | 20° | 68° | 15° | 59° | 73% | 1021 mb | 445 ft |
Giriş
| Tarayıcınız desteklenmiyor. tarayıcınızı yükseltin |
